Time;durP1;ratioP1;P1;durP2;ratioP2;P2;SDS_P1;SDS_P2;PMS_P1;PMS_P2;Temp;Humidity;BMP_temperature;BMP_pressure;BME280_temperature;BME280_humidity;BME280_pressure;Samples;Min_cycle;Max_cycle;Signal;HPM_P1;HPM_P2
2021/05/24 00:00:24;;;;;;;2.83;1.08;;;16.10;63.30;;;;;;6309847;22;20010;-80
2021/05/24 00:02:50;;;;;;;4.45;1.30;;;16.20;63.30;;;;;;6320321;22;20015;-79
2021/05/24 00:05:21;;;;;;;2.97;1.10;;;16.10;63.40;;;;;;6309806;22;20011;-79
2021/05/24 00:07:48;;;;;;;3.22;0.95;;;16.10;63.30;;;;;;6320771;22;20018;-79
2021/05/24 00:10:26;;;;;;;2.20;1.13;;;16.20;63.40;;;;;;6310709;22;20082;-79
2021/05/24 00:12:55;;;;;;;2.70;1.05;;;16.20;63.20;;;;;;6320767;22;20072;-79
2021/05/24 00:15:33;;;;;;;2.45;0.90;;;16.10;63.30;;;;;;6293324;22;20452;-79
2021/05/24 00:17:59;;;;;;;1.60;0.85;;;16.10;63.20;;;;;;6321213;22;20011;-79
2021/05/24 00:20:29;;;;;;;1.15;0.70;;;16.10;63.30;;;;;;6310329;22;20077;-80
2021/05/24 00:22:59;;;;;;;1.70;1.00;;;16.10;63.20;;;;;;6283847;22;20003;-81
2021/05/24 00:25:27;;;;;;;2.67;1.15;;;16.10;63.30;;;;;;6310100;22;20003;-79
2021/05/24 00:27:53;;;;;;;3.22;1.45;;;16.10;63.20;;;;;;6321181;22;20141;-79
2021/05/24 00:30:20;;;;;;;2.13;0.90;;;16.10;63.20;;;;;;6320310;22;20355;-79
2021/05/24 00:32:46;;;;;;;2.22;0.88;;;16.10;63.30;;;;;;6309920;22;20447;-79
2021/05/24 00:35:13;;;;;;;4.53;1.05;;;16.00;63.20;;;;;;6282840;22;20011;-79
2021/05/24 00:37:39;;;;;;;2.25;0.80;;;16.00;63.20;;;;;;6283387;22;20007;-79
2021/05/24 00:40:08;;;;;;;2.70;1.10;;;16.00;63.30;;;;;;6293410;22;20011;-79
2021/05/24 00:42:34;;;;;;;3.10;1.38;;;16.00;63.40;;;;;;6290570;22;20082;-79
2021/05/24 00:45:01;;;;;;;1.77;0.80;;;16.00;63.40;;;;;;6310892;22;20003;-80
2021/05/24 00:47:27;;;;;;;1.52;1.00;;;16.00;63.50;;;;;;6319720;22;20102;-78
2021/05/24 00:49:53;;;;;;;1.92;1.15;;;16.00;63.50;;;;;;6283127;22;20039;-79
2021/05/24 00:52:19;;;;;;;2.35;1.15;;;16.00;63.70;;;;;;6310779;22;20094;-79
2021/05/24 00:54:45;;;;;;;3.63;1.35;;;16.00;63.50;;;;;;6282851;22;20420;-78
2021/05/24 00:57:10;;;;;;;2.85;1.50;;;15.90;63.70;;;;;;6293951;22;20011;-79
2021/05/24 00:59:36;;;;;;;1.75;0.85;;;15.90;63.60;;;;;;6293250;22;20010;-79
2021/05/24 01:02:05;;;;;;;3.17;1.52;;;15.90;63.60;;;;;;6319873;22;20011;-78
2021/05/24 01:04:37;;;;;;;1.90;1.55;;;16.00;63.60;;;;;;6319966;22;20038;-79
2021/05/24 01:07:04;;;;;;;3.00;1.35;;;16.00;63.70;;;;;;6319702;22;20011;-78
2021/05/24 01:09:30;;;;;;;2.63;1.15;;;16.00;63.80;;;;;;6293178;22;20011;-79
2021/05/24 01:11:56;;;;;;;3.10;1.55;;;16.00;63.80;;;;;;6283326;22;20094;-79
2021/05/24 01:14:24;;;;;;;2.70;1.27;;;16.00;63.80;;;;;;6293337;22;20007;-79
2021/05/24 01:16:52;;;;;;;2.90;1.15;;;16.00;63.90;;;;;;6310238;22;20078;-80
2021/05/24 01:19:19;;;;;;;2.25;1.30;;;16.00;63.90;;;;;;6320122;22;20018;-80
2021/05/24 01:21:46;;;;;;;2.83;1.30;;;16.00;63.90;;;;;;6283233;22;20021;-79
2021/05/24 01:24:12;;;;;;;1.60;1.15;;;16.00;64.00;;;;;;6283117;22;20301;-79
2021/05/24 01:26:39;;;;;;;4.40;1.52;;;15.90;63.90;;;;;;6283103;22;20014;-79
2021/05/24 01:29:06;;;;;;;3.83;1.38;;;16.00;64.00;;;;;;6257319;22;20022;-79
2021/05/24 01:31:32;;;;;;;2.25;1.00;;;16.00;64.00;;;;;;6293561;22;20068;-79
2021/05/24 01:33:59;;;;;;;2.65;1.00;;;16.00;63.90;;;;;;6293104;22;20011;-78
2021/05/24 01:36:26;;;;;;;2.20;1.10;;;16.00;63.90;;;;;;6257101;22;20026;-79
2021/05/24 01:38:53;;;;;;;3.13;1.10;;;16.00;63.90;;;;;;6321047;22;20011;-79
2021/05/24 01:41:19;;;;;;;2.47;1.25;;;16.00;63.90;;;;;;6320050;22;20037;-78
2021/05/24 01:43:45;;;;;;;2.03;1.08;;;16.00;63.90;;;;;;6284831;22;20015;-78
2021/05/24 01:46:11;;;;;;;3.22;1.10;;;16.00;63.90;;;;;;6282279;22;20035;-79
2021/05/24 01:48:38;;;;;;;4.40;0.82;;;16.00;64.00;;;;;;6309531;22;20056;-79
2021/05/24 01:51:05;;;;;;;1.80;0.82;;;16.00;63.90;;;;;;6320301;22;20092;-79
2021/05/24 01:53:32;;;;;;;2.17;1.00;;;16.00;63.90;;;;;;6282750;22;20042;-80
2021/05/24 01:55:58;;;;;;;2.88;0.77;;;16.00;63.90;;;;;;6309625;22;20011;-79
2021/05/24 01:58:26;;;;;;;2.22;0.90;;;16.00;63.90;;;;;;6293718;22;20018;-79
2021/05/24 02:01:00;;;;;;;3.80;1.23;;;16.00;63.90;;;;;;6319627;22;20016;-79
2021/05/24 02:03:26;;;;;;;2.58;0.82;;;16.00;64.00;;;;;;6309615;22;20034;-79
2021/05/24 02:05:51;;;;;;;3.40;1.10;;;15.90;64.00;;;;;;6309091;22;20320;-79
2021/05/24 02:08:17;;;;;;;1.42;0.73;;;15.90;64.00;;;;;;6309549;22;20397;-78
2021/05/24 02:10:43;;;;;;;2.53;0.70;;;15.90;64.10;;;;;;6309852;22;20000;-81
2021/05/24 02:13:09;;;;;;;1.17;0.60;;;15.90;64.00;;;;;;6293183;22;20003;-79
2021/05/24 02:15:38;;;;;;;1.20;0.75;;;15.90;63.90;;;;;;6319781;22;20030;-78
2021/05/24 02:18:05;;;;;;;1.83;0.90;;;15.90;64.20;;;;;;6319910;22;20036;-78
2021/05/24 02:20:33;;;;;;;2.28;1.00;;;15.80;64.20;;;;;;6292475;22;20282;-79
2021/05/24 02:23:00;;;;;;;2.22;0.60;;;15.80;64.20;;;;;;6309782;22;20078;-80
2021/05/24 02:25:27;;;;;;;2.42;0.65;;;15.80;64.20;;;;;;6321111;22;20011;-79
2021/05/24 02:27:53;;;;;;;1.50;0.95;;;15.80;64.10;;;;;;6321634;22;20041;-78
2021/05/24 02:30:21;;;;;;;2.10;0.90;;;15.80;64.20;;;;;;6295515;22;20007;-79
2021/05/24 02:32:47;;;;;;;2.05;0.80;;;15.80;64.80;;;;;;6284447;22;20091;-79
2021/05/24 02:35:16;;;;;;;1.83;0.80;;;15.80;64.20;;;;;;6284285;22;20065;-80
2021/05/24 02:37:43;;;;;;;2.70;1.05;;;15.80;64.40;;;;;;6321628;22;20078;-80
2021/05/24 02:40:10;;;;;;;1.90;0.90;;;15.80;64.30;;;;;;6294746;22;20007;-79
2021/05/24 02:42:37;;;;;;;2.80;0.90;;;15.80;64.40;;;;;;6318659;22;20049;-79
2021/05/24 02:45:05;;;;;;;2.65;0.85;;;15.80;64.20;;;;;;6312288;22;20019;-77
2021/05/24 02:47:31;;;;;;;4.47;1.10;;;15.70;64.30;;;;;;6311431;22;20328;-79
2021/05/24 02:49:57;;;;;;;3.67;0.88;;;15.70;64.30;;;;;;6284267;22;20019;-78
2021/05/24 02:52:23;;;;;;;3.00;1.05;;;15.70;64.30;;;;;;6321644;22;20018;-79
2021/05/24 02:54:49;;;;;;;1.30;0.70;;;15.70;64.40;;;;;;6284467;22;20337;-79
2021/05/24 02:57:14;;;;;;;2.38;0.85;;;15.70;64.40;;;;;;6294649;22;20018;-79
2021/05/24 02:59:40;;;;;;;1.73;0.90;;;15.70;64.50;;;;;;6258477;22;20057;-80
2021/05/24 03:02:07;;;;;;;2.17;0.95;;;15.70;64.40;;;;;;6311088;22;20010;-79
2021/05/24 03:04:33;;;;;;;2.53;0.95;;;15.70;64.50;;;;;;6311532;22;20000;-79
2021/05/24 03:06:59;;;;;;;2.42;1.17;;;15.70;64.50;;;;;;6294945;22;20019;-79
2021/05/24 03:09:24;;;;;;;2.08;0.75;;;15.80;64.50;;;;;;6322078;22;20057;-79
2021/05/24 03:11:51;;;;;;;2.22;0.82;;;15.80;64.50;;;;;;6310771;22;20014;-79
2021/05/24 03:14:17;;;;;;;2.35;0.80;;;15.80;64.40;;;;;;6310976;22;20011;-80
2021/05/24 03:16:43;;;;;;;1.92;1.10;;;15.80;64.40;;;;;;6321391;22;20012;-79
2021/05/24 03:19:09;;;;;;;2.30;0.90;;;15.80;64.40;;;;;;6321963;22;20018;-78
2021/05/24 03:21:35;;;;;;;2.53;0.90;;;15.80;64.30;;;;;;6321684;22;20406;-81
2021/05/24 03:24:01;;;;;;;2.25;0.82;;;15.80;64.40;;;;;;6311026;22;20015;-79
2021/05/24 03:26:27;;;;;;;1.95;1.00;;;15.90;64.40;;;;;;6311034;22;20011;-78
2021/05/24 03:28:52;;;;;;;2.13;0.85;;;15.80;64.90;;;;;;6321199;22;20015;-78
2021/05/24 03:31:18;;;;;;;1.33;0.63;;;15.80;64.30;;;;;;6321184;22;20312;-79
2021/05/24 03:33:45;;;;;;;2.88;0.73;;;15.80;64.40;;;;;;6283325;22;20018;-79
2021/05/24 03:36:11;;;;;;;3.15;1.00;;;15.80;64.50;;;;;;6320639;22;20089;-78
2021/05/24 03:38:37;;;;;;;2.83;0.80;;;15.80;64.50;;;;;;6321049;22;20011;-80
2021/05/24 03:41:04;;;;;;;1.85;0.90;;;15.80;64.50;;;;;;6321359;22;20481;-80
2021/05/24 03:43:30;;;;;;;2.50;1.10;;;15.80;64.50;;;;;;6287307;22;20078;-78
2021/05/24 03:45:56;;;;;;;3.65;1.00;;;15.80;64.60;;;;;;6284457;22;20062;-79
2021/05/24 03:48:23;;;;;;;2.67;0.80;;;15.80;64.60;;;;;;6320954;22;20007;-79
2021/05/24 03:50:49;;;;;;;1.92;0.90;;;15.80;64.60;;;;;;6310692;22;20096;-79
2021/05/24 03:53:15;;;;;;;1.45;0.75;;;15.90;64.80;;;;;;6321665;22;20042;-79
2021/05/24 03:55:40;;;;;;;3.00;1.33;;;15.80;64.70;;;;;;6293725;22;20090;-78
2021/05/24 03:58:06;;;;;;;1.30;0.73;;;15.80;64.70;;;;;;6310480;22;20441;-79
2021/05/24 04:00:32;;;;;;;1.75;0.70;;;15.80;65.40;;;;;;6320906;22;20008;-78
2021/05/24 04:03:01;;;;;;;3.03;0.82;;;15.80;64.80;;;;;;6282786;22;20015;-79
2021/05/24 04:05:38;;;;;;;2.10;0.90;;;15.80;64.80;;;;;;6320506;22;20011;-78
2021/05/24 04:08:06;;;;;;;2.78;0.73;;;15.80;64.80;;;;;;6283334;22;20007;-78
2021/05/24 04:10:37;;;;;;;1.67;0.85;;;15.80;64.80;;;;;;6284227;22;20396;-78
2021/05/24 04:13:04;;;;;;;2.80;0.95;;;15.80;64.80;;;;;;6320309;22;20069;-78
2021/05/24 04:15:31;;;;;;;2.28;0.82;;;15.80;64.80;;;;;;6293649;22;20003;-79
2021/05/24 04:18:01;;;;;;;2.28;0.90;;;15.80;64.80;;;;;;6320435;22;20305;-79
2021/05/24 04:20:27;;;;;;;2.15;0.80;;;15.80;64.90;;;;;;6320771;22;20007;-78
2021/05/24 04:22:53;;;;;;;2.28;1.02;;;15.70;64.80;;;;;;6320854;22;20018;-79
2021/05/24 04:25:19;;;;;;;1.75;0.93;;;15.80;64.90;;;;;;6284023;22;20015;-79
2021/05/24 04:27:46;;;;;;;2.72;0.98;;;15.70;65.50;;;;;;6318819;22;20026;-79
2021/05/24 04:30:14;;;;;;;2.30;0.60;;;15.70;64.90;;;;;;6320296;22;20339;-79
2021/05/24 04:32:40;;;;;;;3.65;0.90;;;15.70;65.00;;;;;;6310043;22;20289;-78
2021/05/24 04:35:08;;;;;;;1.27;0.70;;;15.70;65.00;;;;;;6320678;22;20008;-79
2021/05/24 04:37:34;;;;;;;3.15;1.02;;;15.70;65.00;;;;;;6294200;22;20039;-79
2021/05/24 04:40:00;;;;;;;1.92;0.82;;;15.70;64.90;;;;;;6320407;22;20096;-79
2021/05/24 04:42:27;;;;;;;3.88;0.80;;;15.70;65.00;;;;;;6309998;22;20400;-78
2021/05/24 04:44:52;;;;;;;2.50;0.85;;;15.60;65.00;;;;;;6320499;22;20090;-80
2021/05/24 04:47:18;;;;;;;3.33;1.25;;;15.60;65.00;;;;;;6309416;22;20034;-79
2021/05/24 04:49:49;;;;;;;3.17;1.02;;;15.60;64.90;;;;;;6283059;22;20026;-80
2021/05/24 04:52:19;;;;;;;3.95;0.85;;;15.60;65.00;;;;;;6319882;22;20064;-75
2021/05/24 04:54:46;;;;;;;3.38;0.85;;;15.60;65.00;;;;;;6282678;22;20023;-81
2021/05/24 04:57:12;;;;;;;1.85;1.05;;;15.70;65.00;;;;;;6320003;22;20023;-79
2021/05/24 04:59:38;;;;;;;1.77;0.50;;;15.70;64.80;;;;;;6320849;22;20041;-78
2021/05/24 05:02:04;;;;;;;1.67;0.73;;;15.80;64.70;;;;;;6257675;22;20014;-76
2021/05/24 05:04:30;;;;;;;3.53;0.73;;;15.80;64.40;;;;;;6320110;22;20011;-80
2021/05/24 05:06:57;;;;;;;2.03;0.73;;;15.80;64.30;;;;;;6319810;22;20003;-77
2021/05/24 05:09:25;;;;;;;1.88;0.75;;;15.80;64.20;;;;;;6320248;22;20078;-80
2021/05/24 05:11:55;;;;;;;2.97;0.70;;;15.80;64.10;;;;;;6319902;22;20011;-77
2021/05/24 05:14:25;;;;;;;4.53;0.95;;;15.80;64.00;;;;;;6320198;22;20010;-76
2021/05/24 05:16:51;;;;;;;3.67;1.20;;;15.90;64.10;;;;;;6311149;22;20012;-77
2021/05/24 05:19:17;;;;;;;2.65;0.90;;;15.90;64.20;;;;;;6320298;22;20007;-81
2021/05/24 05:21:44;;;;;;;2.33;0.80;;;15.90;64.50;;;;;;6320119;22;20007;-76
2021/05/24 05:24:10;;;;;;;3.08;1.27;;;15.90;65.10;;;;;;6319988;22;20022;-76
2021/05/24 05:26:36;;;;;;;5.97;1.40;;;15.90;65.50;;;;;;6309998;22;20014;-75
2021/05/24 05:29:02;;;;;;;4.90;1.13;;;15.90;66.10;;;;;;6319355;22;20053;-76
2021/05/24 05:31:28;;;;;;;4.43;1.00;;;15.90;66.40;;;;;;6320023;22;20018;-72
2021/05/24 05:33:54;;;;;;;10.05;1.15;;;16.00;67.20;;;;;;6309001;22;20035;-75
2021/05/24 05:36:20;;;;;;;1.98;0.75;;;16.00;67.60;;;;;;6292965;22;20003;-75
2021/05/24 05:38:46;;;;;;;5.30;1.02;;;16.00;67.90;;;;;;6320218;22;20031;-76
2021/05/24 05:41:12;;;;;;;4.97;1.10;;;16.00;68.10;;;;;;6319718;22;20022;-78
2021/05/24 06:09:57;;;;;;;3.00;0.60;;;16.70;68.60;;;;;;6161054;23;20020;-83
2021/05/24 06:14:12;;;;;;;4.60;0.90;;;16.80;68.60;;;;;;6107461;23;20014;-83
2021/05/24 06:20:32;;;;;;;3.28;0.50;;;16.50;67.10;;;;;;6156883;23;20044;-83
2021/05/24 06:23:00;;;;;;;3.83;0.60;;;16.60;65.70;;;;;;6131646;23;20025;-85
2021/05/24 06:25:31;;;;;;;5.60;0.50;;;16.70;67.10;;;;;;6170979;23;20013;-85
2021/05/24 06:27:57;;;;;;;3.92;0.43;;;16.80;67.30;;;;;;6200453;22;20047;-81
2021/05/24 06:30:23;;;;;;;2.05;0.47;;;16.90;67.10;;;;;;6284064;22;20019;-82
2021/05/24 06:32:49;;;;;;;5.25;0.68;;;17.10;66.90;;;;;;6321215;22;20007;-77
2021/05/24 06:35:26;;;;;;;2.35;0.50;;;17.20;66.80;;;;;;6321237;22;20335;-83
2021/05/24 06:37:52;;;;;;;4.18;0.80;;;17.30;66.60;;;;;;6284047;22;20011;-78
2021/05/24 06:40:18;;;;;;;1.92;0.80;;;17.30;65.60;;;;;;6321157;22;20007;-75
2021/05/24 06:42:44;;;;;;;3.72;0.50;;;17.40;66.00;;;;;;6294085;22;20449;-76
2021/05/24 06:45:11;;;;;;;6.65;0.70;;;17.40;65.80;;;;;;6310716;22;20076;-78
2021/05/24 06:47:37;;;;;;;4.63;0.50;;;17.20;63.70;;;;;;6320684;22;20019;-77
2021/05/24 06:50:05;;;;;;;4.80;0.50;;;17.30;65.70;;;;;;6321288;22;20011;-78
2021/05/24 06:52:31;;;;;;;7.97;0.75;;;17.40;66.00;;;;;;6321397;22;20011;-78
2021/05/24 06:54:57;;;;;;;4.63;0.85;;;17.40;65.90;;;;;;6320881;22;20019;-79
2021/05/24 06:57:26;;;;;;;5.53;0.50;;;17.50;65.70;;;;;;6321028;22;20057;-78
2021/05/24 06:59:52;;;;;;;5.95;0.50;;;17.60;65.60;;;;;;6321055;22;20042;-83
2021/05/24 07:06:08;;;;;;;3.58;0.45;;;17.60;65.50;;;;;;6276565;22;20003;-82
2021/05/24 07:08:59;;;;;;;;;;;;;;;;;;;;;
2021/05/24 07:11:53;;;;;;;1.60;0.30;;;17.90;65.50;;;;;;6309912;22;20090;-81
2021/05/24 07:14:43;;;;;;;2.75;0.40;;;17.80;65.30;;;;;;6283778;22;20018;-81
2021/05/24 07:20:57;;;;;;;2.40;0.50;;;17.80;65.00;;;;;;6115047;23;20037;-81
2021/05/24 07:23:32;;;;;;;2.35;0.52;;;17.70;63.90;;;;;;6177271;22;20080;-79
2021/05/24 07:25:58;;;;;;;2.88;0.32;;;17.50;64.80;;;;;;6283277;22;20007;-77
2021/05/24 07:28:25;;;;;;;8.25;0.80;;;17.50;65.30;;;;;;6320837;22;20007;-77
2021/05/24 07:30:50;;;;;;;3.92;0.60;;;17.50;65.40;;;;;;6320580;22;20297;-77
2021/05/24 07:33:16;;;;;;;2.78;0.50;;;17.40;65.50;;;;;;6320853;22;20007;-78
2021/05/24 07:35:42;;;;;;;3.05;0.50;;;17.40;65.50;;;;;;6320690;22;20011;-77
2021/05/24 07:38:09;;;;;;;7.65;0.60;;;17.50;65.60;;;;;;6320864;22;20254;-78
2021/05/24 07:40:36;;;;;;;2.65;0.40;;;17.40;65.50;;;;;;6293497;22;20091;-77
2021/05/24 07:43:02;;;;;;;4.85;0.55;;;17.50;65.50;;;;;;6320977;22;20019;-79
2021/05/24 07:45:28;;;;;;;3.25;0.73;;;17.40;65.20;;;;;;6311904;22;20090;-78
2021/05/24 07:47:54;;;;;;;1.00;0.20;;;17.50;65.30;;;;;;6320446;22;20044;-75
2021/05/24 07:50:20;;;;;;;1.42;0.35;;;17.40;65.20;;;;;;6317978;22;20015;-75
2021/05/24 07:52:46;;;;;;;2.50;0.30;;;17.40;65.10;;;;;;6318106;22;20019;-77
2021/05/24 07:55:12;;;;;;;2.03;0.38;;;17.40;65.00;;;;;;6318563;22;20019;-76
2021/05/24 07:57:39;;;;;;;2.50;0.35;;;17.40;65.00;;;;;;6318675;22;20025;-72
2021/05/24 08:00:07;;;;;;;3.70;0.38;;;17.40;64.90;;;;;;6318939;22;20027;-75
2021/05/24 08:02:42;;;;;;;4.95;0.50;;;17.30;63.90;;;;;;6309585;22;20033;-76
2021/05/24 08:05:10;;;;;;;2.95;0.38;;;17.20;63.30;;;;;;6320251;22;20003;-76
2021/05/24 08:07:36;;;;;;;4.05;0.50;;;17.20;63.90;;;;;;6283177;22;20337;-75
2021/05/24 08:10:03;;;;;;;3.47;0.40;;;17.10;64.30;;;;;;6320754;22;20007;-77
2021/05/24 08:12:29;;;;;;;6.32;0.60;;;17.10;64.60;;;;;;6320153;22;20453;-76
2021/05/24 08:15:30;;;;;;;6.28;0.52;;;17.00;64.40;;;;;;6292834;22;20041;-77
2021/05/24 08:18:01;;;;;;;2.42;0.40;;;17.00;64.40;;;;;;6257341;22;20011;-76
2021/05/24 08:20:28;;;;;;;6.32;0.63;;;17.00;64.60;;;;;;6309831;22;20046;-77
2021/05/24 08:22:54;;;;;;;6.28;0.60;;;16.90;64.60;;;;;;6293197;22;20304;-77
2021/05/24 08:25:20;;;;;;;2.53;0.38;;;16.90;64.70;;;;;;6320594;22;20014;-79
2021/05/24 08:27:46;;;;;;;3.15;0.22;;;16.90;64.80;;;;;;6257176;22;20015;-77
2021/05/24 08:30:13;;;;;;;3.67;0.50;;;16.80;64.90;;;;;;6293075;22;20015;-77
2021/05/24 08:32:39;;;;;;;2.38;0.50;;;16.80;65.00;;;;;;6319890;22;20086;-76
2021/05/24 08:35:07;;;;;;;3.40;0.55;;;16.80;65.00;;;;;;6283163;22;20022;-77
2021/05/24 08:37:33;;;;;;;4.65;0.40;;;16.80;65.00;;;;;;6320200;22;20015;-76
2021/05/24 08:40:02;;;;;;;3.03;0.57;;;16.80;65.00;;;;;;6319876;22;20011;-76
2021/05/24 08:42:36;;;;;;;3.65;0.50;;;16.70;65.00;;;;;;6293091;22;20031;-76
2021/05/24 08:45:05;;;;;;;7.45;0.60;;;16.70;65.20;;;;;;6309855;22;20022;-76
2021/05/24 08:47:44;;;;;;;8.93;0.75;;;16.80;65.40;;;;;;6309380;22;20007;-77
2021/05/24 08:50:11;;;;;;;8.70;1.25;;;16.80;65.60;;;;;;6319952;22;20035;-77
2021/05/24 08:52:37;;;;;;;6.97;0.95;;;16.80;65.80;;;;;;6319470;22;20040;-76
2021/05/24 08:55:06;;;;;;;7.78;0.65;;;16.90;65.90;;;;;;6309422;22;20332;-76
2021/05/24 08:57:44;;;;;;;6.65;1.00;;;16.80;65.70;;;;;;6257313;22;20100;-76
2021/05/24 09:07:55;;;;;;;9.27;1.10;;;16.90;66.10;;;;;;6096623;23;20014;-75
2021/05/24 09:10:26;;;;;;;6.10;0.70;;;17.00;66.10;;;;;;6098307;23;20011;-78
2021/05/24 09:12:53;;;;;;;5.65;0.63;;;17.10;66.00;;;;;;6134579;23;20100;-76
2021/05/24 09:15:20;;;;;;;4.93;0.65;;;17.30;65.90;;;;;;6300647;22;20046;-77
2021/05/24 09:17:53;;;;;;;4.32;0.80;;;17.40;65.60;;;;;;6282961;22;20470;-76
2021/05/24 09:20:26;;;;;;;2.92;0.65;;;17.50;65.40;;;;;;6319424;22;20007;-75
2021/05/24 09:23:10;;;;;;;7.78;0.98;;;17.40;62.90;;;;;;6319860;22;20068;-76
2021/05/24 09:26:06;;;;;;;8.00;0.90;;;17.30;65.10;;;;;;6319351;22;20011;-76
2021/05/24 09:28:36;;;;;;;5.60;0.93;;;17.40;65.60;;;;;;6319587;22;20327;-78
2021/05/24 09:31:09;;;;;;;7.22;1.05;;;17.50;65.60;;;;;;6320188;22;20034;-77
2021/05/24 09:33:37;;;;;;;10.95;1.15;;;17.40;64.90;;;;;;6320297;22;20008;-75
2021/05/24 09:36:04;;;;;;;4.50;1.23;;;17.50;65.30;;;;;;6319903;22;20056;-73
2021/05/24 09:38:41;;;;;;;7.72;0.95;;;17.50;65.50;;;;;;6309458;22;20012;-75
2021/05/24 09:41:08;;;;;;;4.13;0.70;;;17.60;65.50;;;;;;6319988;22;20018;-74
2021/05/24 09:43:38;;;;;;;7.90;0.85;;;17.60;65.20;;;;;;6318693;22;20018;-77
2021/05/24 09:46:21;;;;;;;12.80;1.30;;;17.40;63.50;;;;;;6282701;22;20100;-79
2021/05/24 09:48:50;;;;;;;12.33;0.67;;;17.40;65.60;;;;;;6318802;22;20015;-77
2021/05/24 09:51:21;;;;;;;14.32;1.25;;;17.40;65.90;;;;;;6292760;22;20015;-76
2021/05/24 09:54:09;;;;;;;6.22;0.77;;;17.50;66.20;;;;;;6319882;22;20038;-76
2021/05/24 09:56:49;;;;;;;5.63;1.20;;;17.50;65.40;;;;;;6309211;22;20086;-80
2021/05/24 09:59:21;;;;;;;6.32;0.90;;;17.60;66.20;;;;;;6319747;22;20086;-83
2021/05/24 10:01:55;;;;;;;8.00;0.90;;;17.80;66.10;;;;;;6282877;22;20007;-82
2021/05/24 10:04:23;;;;;;;6.25;0.93;;;17.90;66.00;;;;;;6281802;22;20424;-78
2021/05/24 10:06:49;;;;;;;10.05;0.80;;;18.10;65.80;;;;;;6319665;22;20018;-85
2021/05/24 10:09:17;;;;;;;6.03;1.05;;;18.20;65.60;;;;;;6308919;22;20081;-86
2021/05/24 10:11:46;;;;;;;11.02;1.15;;;18.30;65.50;;;;;;6308837;22;20023;-78
2021/05/24 10:14:21;;;;;;;9.02;0.85;;;18.30;63.70;;;;;;6320061;22;20022;-77
2021/05/24 10:16:55;;;;;;;16.42;1.50;;;18.00;63.60;;;;;;6292523;22;20270;-77
2021/05/24 10:19:21;;;;;;;17.95;1.45;;;18.10;64.90;;;;;;6292696;22;20354;-80
2021/05/24 10:21:49;;;;;;;22.63;1.60;;;18.20;65.10;;;;;;6319493;22;20065;-79
2021/05/24 10:24:18;;;;;;;12.75;1.60;;;18.30;65.30;;;;;;6319741;22;20023;-79
2021/05/24 10:26:45;;;;;;;11.27;1.10;;;18.40;65.40;;;;;;6319930;22;20351;-76
2021/05/24 10:29:11;;;;;;;9.02;1.05;;;18.40;65.00;;;;;;6309840;22;20010;-81
2021/05/24 10:31:38;;;;;;;6.32;0.90;;;18.40;64.70;;;;;;6309521;22;20296;-80
2021/05/24 10:34:17;;;;;;;8.27;0.90;;;18.40;64.50;;;;;;6319666;22;20014;-79
2021/05/24 10:36:45;;;;;;;13.68;1.38;;;18.50;64.30;;;;;;6310042;22;20023;-82
2021/05/24 10:39:25;;;;;;;9.75;1.33;;;18.50;64.20;;;;;;6319896;22;20018;-79
2021/05/24 10:41:58;;;;;;;7.70;0.73;;;18.50;64.10;;;;;;6319733;22;20026;-80
2021/05/24 10:44:25;;;;;;;3.40;0.93;;;18.50;64.00;;;;;;6316178;22;20011;-80
2021/05/24 10:46:53;;;;;;;10.30;1.33;;;18.50;64.00;;;;;;6284280;22;20086;-79
2021/05/24 10:49:25;;;;;;;4.78;0.73;;;18.50;64.00;;;;;;6321356;22;20090;-81
2021/05/24 10:51:51;;;;;;;5.07;0.45;;;18.50;63.90;;;;;;6312004;22;20015;-81
2021/05/24 10:54:20;;;;;;;3.22;0.57;;;18.50;63.90;;;;;;6321033;22;20007;-80
2021/05/24 10:57:10;;;;;;;5.45;0.52;;;18.50;63.80;;;;;;6311637;22;20015;-83
2021/05/24 10:59:45;;;;;;;2.10;0.40;;;18.50;63.70;;;;;;6321699;22;20007;-81
2021/05/24 11:02:12;;;;;;;4.28;0.60;;;18.50;63.80;;;;;;6321720;22;20015;-80
2021/05/24 11:04:48;;;;;;;8.00;0.73;;;18.50;63.90;;;;;;6311781;22;20038;-80
2021/05/24 11:07:23;;;;;;;5.32;0.80;;;18.50;63.80;;;;;;6311032;22;20018;-80
2021/05/24 11:09:48;;;;;;;3.63;0.40;;;18.50;63.80;;;;;;6322312;22;20010;-79
2021/05/24 11:12:27;;;;;;;2.15;0.68;;;18.50;63.80;;;;;;6322091;22;20065;-79
2021/05/24 11:15:13;;;;;;;4.25;0.60;;;18.50;63.80;;;;;;6321039;22;20035;-80
2021/05/24 11:17:57;;;;;;;5.78;0.70;;;18.50;63.60;;;;;;6310990;22;20011;-79
2021/05/24 11:20:38;;;;;;;3.63;0.52;;;18.50;63.70;;;;;;6320979;22;20069;-80
2021/05/24 11:26:13;;;;;;;2.42;0.45;;;18.50;63.60;;;;;;6321328;22;20078;-81
2021/05/24 11:28:48;;;;;;;2.10;0.40;;;18.50;63.60;;;;;;6311025;22;20003;-79
2021/05/24 11:31:16;;;;;;;1.83;0.52;;;18.50;63.70;;;;;;6321839;22;20082;-79
2021/05/24 11:33:48;;;;;;;1.08;0.45;;;18.50;63.70;;;;;;6321951;22;20018;-78
2021/05/24 11:36:38;;;;;;;2.28;0.30;;;18.50;63.70;;;;;;6310888;22;20352;-81
2021/05/24 11:39:05;;;;;;;2.25;0.43;;;18.50;63.70;;;;;;6285817;22;20019;-79
2021/05/24 11:41:32;;;;;;;1.73;0.45;;;18.50;63.70;;;;;;6320789;22;20320;-81
2021/05/24 11:44:01;;;;;;;3.13;0.45;;;18.50;64.30;;;;;;6318617;22;20015;-80
2021/05/24 11:46:55;;;;;;;1.85;0.28;;;18.50;63.70;;;;;;6310905;22;20023;-80
2021/05/24 11:49:33;;;;;;;0.95;0.35;;;18.50;63.60;;;;;;6320992;22;20019;-80
2021/05/24 11:51:59;;;;;;;1.83;0.20;;;18.50;63.60;;;;;;6320666;22;20041;-79
2021/05/24 11:54:26;;;;;;;1.33;0.38;;;18.50;63.70;;;;;;6321532;22;20007;-79
2021/05/24 11:56:57;;;;;;;2.38;0.47;;;18.50;63.70;;;;;;6320925;22;20022;-76
2021/05/24 11:59:26;;;;;;;2.67;0.40;;;18.50;63.60;;;;;;6320407;22;20286;-77
2021/05/24 12:01:53;;;;;;;1.10;0.60;;;18.50;63.60;;;;;;6283577;22;20026;-80
2021/05/24 12:04:28;;;;;;;4.50;0.70;;;18.50;63.70;;;;;;6320993;22;20003;-79
2021/05/24 12:06:59;;;;;;;4.20;0.60;;;18.50;64.00;;;;;;6320510;22;20015;-78
2021/05/24 12:09:39;;;;;;;5.05;0.50;;;18.50;64.20;;;;;;6320466;22;20011;-77
2021/05/24 12:12:06;;;;;;;3.97;0.65;;;18.50;64.50;;;;;;6320701;22;20408;-79
2021/05/24 12:14:35;;;;;;;4.30;0.38;;;18.50;64.80;;;;;;6320238;22;20011;-77
2021/05/24 12:17:15;;;;;;;3.35;0.68;;;18.50;64.70;;;;;;6320417;22;20010;-78
2021/05/24 12:19:43;;;;;;;5.80;0.95;;;18.50;64.80;;;;;;6293700;22;20015;-79
2021/05/24 12:22:12;;;;;;;5.90;0.70;;;18.50;65.10;;;;;;6320848;22;20022;-79
2021/05/24 12:24:40;;;;;;;4.95;0.57;;;18.50;65.40;;;;;;6320648;22;20422;-78
2021/05/24 12:27:06;;;;;;;5.93;0.60;;;18.50;65.30;;;;;;6319575;22;20022;-78
2021/05/24 12:29:56;;;;;;;10.88;0.63;;;18.50;65.50;;;;;;6309863;22;20331;-81
2021/05/24 12:32:27;;;;;;;9.13;1.17;;;18.50;65.80;;;;;;6310305;22;20017;-80
2021/05/24 12:34:54;;;;;;;17.83;1.35;;;18.50;66.00;;;;;;6320404;22;20339;-77
2021/05/24 12:37:20;;;;;;;7.90;0.80;;;18.50;65.90;;;;;;6320718;22;20075;-77
2021/05/24 12:39:48;;;;;;;5.63;0.80;;;18.50;66.10;;;;;;6320507;22;20031;-80
2021/05/24 12:42:15;;;;;;;7.22;1.13;;;18.50;66.20;;;;;;6320293;22;20121;-77
2021/05/24 12:44:43;;;;;;;6.78;0.90;;;18.50;66.30;;;;;;6314863;22;20162;-78
2021/05/24 12:47:21;;;;;;;6.35;0.80;;;18.40;66.20;;;;;;6320081;22;20035;-78
2021/05/24 12:49:48;;;;;;;4.22;0.95;;;18.40;66.30;;;;;;6320526;22;20030;-78
2021/05/24 12:52:16;;;;;;;6.93;0.80;;;18.40;66.40;;;;;;6320563;22;20030;-79
2021/05/24 12:54:43;;;;;;;8.43;0.90;;;18.40;66.50;;;;;;6319855;22;20090;-79
2021/05/24 12:57:10;;;;;;;9.82;0.95;;;18.40;66.60;;;;;;6320051;22;20011;-78
2021/05/24 12:59:53;;;;;;;8.48;0.85;;;18.40;66.70;;;;;;6320303;22;20018;-84
2021/05/24 13:02:30;;;;;;;5.40;0.70;;;18.40;67.20;;;;;;6320437;22;20396;-78
2021/05/24 13:05:19;;;;;;;11.43;0.82;;;18.40;66.60;;;;;;6308807;22;20513;-81
2021/05/24 13:07:51;;;;;;;3.25;0.65;;;18.40;66.60;;;;;;6307660;22;20350;-78
2021/05/24 13:10:19;;;;;;;6.00;0.70;;;18.40;66.40;;;;;;6292530;22;20018;-82
2021/05/24 13:12:46;;;;;;;6.93;0.93;;;18.40;66.10;;;;;;6282241;22;20011;-74
2021/05/24 13:15:15;;;;;;;3.60;0.60;;;18.40;65.70;;;;;;6319722;22;20018;-72
2021/05/24 13:17:59;;;;;;;4.97;1.10;;;18.40;65.30;;;;;;6319650;22;20262;-79
2021/05/24 13:20:41;;;;;;;3.47;0.65;;;18.40;64.80;;;;;;6283496;22;20009;-82
2021/05/24 13:55:48;;;;;;;3.05;0.52;;;18.20;67.80;;;;;;6278047;22;20023;-84
2021/05/24 13:58:47;;;;;;;6.22;1.10;;;18.20;67.30;;;;;;6288523;22;20007;-84
2021/05/24 14:05:25;;;;;;;7.32;0.77;;;18.20;67.20;;;;;;6067446;23;20029;-78
2021/05/24 14:08:05;;;;;;;5.07;1.10;;;18.10;66.10;;;;;;6127254;23;20013;-85
2021/05/24 14:10:31;;;;;;;5.97;0.82;;;18.20;66.50;;;;;;6135257;23;20076;-84
2021/05/24 14:12:57;;;;;;;5.22;0.70;;;18.10;66.70;;;;;;6186338;22;20007;-84
2021/05/24 14:15:23;;;;;;;6.18;0.80;;;18.10;66.70;;;;;;6190111;23;20479;-83
2021/05/24 14:17:49;;;;;;;5.55;0.68;;;18.20;66.80;;;;;;6166256;23;20387;-85
2021/05/24 14:20:15;;;;;;;3.72;0.77;;;18.20;66.80;;;;;;6165926;23;20012;-84
2021/05/24 14:22:43;;;;;;;1.80;0.77;;;18.10;66.80;;;;;;6166988;23;20012;-85
2021/05/24 14:25:09;;;;;;;5.88;0.65;;;18.20;66.90;;;;;;6192241;23;20012;-83